Andover, Illinois
Current Conditions -  °F | °C
As of 7:52 PM on Thursday 20 Nov 2014 (Local Time) from KMLI Reporting Station
Clear Clear  
Wind Chill: 11°   Ceiling: Unl
Heat Index: 20°   Visibility: 10mi
Dew Point:   Wind: 7mph
Humidity: 60%   Direction: 310°NW
Pressure: 30.28"   Gusts: NA
Location:  41.29°N, 90.29°W
Report Text: KMLI 210152Z 31006KT 10SM CLR M07/M13 A3028 RMK AO2 SLP262 T10671133
Loading
Personal Weather Stations






























Interactive Weather Map New forecast layout! Learn more

10-Day Weather Forecast

Advertisements
Track Severe Weather on mobile